Time;durP1;ratioP1;P1;durP2;ratioP2;P2;SDS_P1;SDS_P2;PMS_P1;PMS_P2;Temp;Humidity;BMP_temperature;BMP_pressure;BME280_temperature;BME280_humidity;BME280_pressure;Samples;Min_cycle;Max_cycle;Signal;HPM_P1;HPM_P2
2023/02/08 00:00:55;;;;;;;21.27;11.30;;;;;-0.90;100472.00;;;;4933787;29;20086;-63
2023/02/08 00:03:21;;;;;;;17.77;11.15;;;;;-0.80;100473.00;;;;4916691;29;20532;-64
2023/02/08 00:05:48;;;;;;;21.63;11.43;;;;;-0.80;100479.00;;;;4933091;29;20077;-63
2023/02/08 00:08:15;;;;;;;20.90;11.68;;;;;-0.90;100459.00;;;;4933978;29;20051;-63
2023/02/08 00:10:42;;;;;;;21.98;12.30;;;;;-1.00;100461.00;;;;4933713;29;20051;-61
2023/02/08 00:13:09;;;;;;;21.30;10.65;;;;;-1.00;100467.00;;;;4933877;29;20058;-61
2023/02/08 00:15:43;;;;;;;18.77;11.73;;;;;-1.00;100462.00;;;;4933168;29;20054;-61
2023/02/08 00:18:09;;;;;;;;;;;;;-1.00;100469.00;;;;4934467;29;20455;-61
2023/02/08 00:20:41;;;;;;;20.02;10.50;;;;;-1.00;100465.00;;;;4937591;29;19944;-62
2023/02/08 00:23:08;;;;;;;18.17;10.82;;;;;-1.00;100465.00;;;;4936876;29;20110;-62
2023/02/08 00:25:35;;;;;;;18.27;10.93;;;;;-1.00;100461.00;;;;4936301;29;20051;-62
2023/02/08 00:28:02;;;;;;;16.60;10.43;;;;;-0.90;100463.00;;;;4936902;29;20048;-62
2023/02/08 00:30:30;;;;;;;17.42;10.90;;;;;-1.00;100454.00;;;;4936743;29;20416;-62
2023/02/08 00:32:58;;;;;;;17.80;10.63;;;;;-0.90;100464.00;;;;4919452;29;20539;-62
2023/02/08 00:35:25;;;;;;;16.88;11.05;;;;;-0.90;100461.00;;;;4918937;29;20051;-62
2023/02/08 00:37:51;;;;;;;21.77;11.63;;;;;-0.90;100461.00;;;;4919668;29;20146;-62
2023/02/08 00:40:18;;;;;;;24.10;12.85;;;;;-0.90;100461.00;;;;4936776;29;20489;-61
2023/02/08 00:42:44;;;;;;;28.38;13.98;;;;;-0.80;100458.00;;;;4919470;29;20051;-61
2023/02/08 00:45:11;;;;;;;29.02;13.88;;;;;-0.90;100472.00;;;;4919060;29;20059;-62
2023/02/08 00:47:37;;;;;;;36.40;14.98;;;;;-0.90;100457.00;;;;4936330;29;20453;-62
2023/02/08 00:50:05;;;;;;;36.55;15.02;;;;;-0.90;100458.00;;;;4936521;29;20052;-62
2023/02/08 00:52:35;;;;;;;30.85;13.20;;;;;-0.80;100456.00;;;;4919503;29;20118;-62
2023/02/08 00:55:04;;;;;;;27.10;13.35;;;;;-0.80;100455.00;;;;4935907;29;20131;-62
2023/02/08 00:57:32;;;;;;;23.83;10.23;;;;;-0.80;100455.00;;;;4919338;29;20071;-62
2023/02/08 00:59:58;;;;;;;16.33;10.02;;;;;-0.80;100464.00;;;;4919606;29;20118;-62
2023/02/08 01:02:25;;;;;;;17.80;10.75;;;;;-0.80;100460.00;;;;4936432;29;20516;-62
2023/02/08 01:04:52;;;;;;;17.33;10.38;;;;;-0.90;100466.00;;;;4927981;29;20067;-62
2023/02/08 01:07:18;;;;;;;17.05;10.57;;;;;-0.80;100460.00;;;;4951352;29;20028;-62
2023/02/08 01:09:45;;;;;;;18.08;9.90;;;;;-0.80;100471.00;;;;4925211;29;20060;-62
2023/02/08 01:12:11;;;;;;;21.00;11.20;;;;;-1.00;100457.00;;;;4919081;29;20130;-62
2023/02/08 01:14:39;;;;;;;20.65;11.32;;;;;-1.10;100456.00;;;;4935438;29;20039;-62
2023/02/08 01:17:06;;;;;;;18.33;11.43;;;;;-1.10;100449.00;;;;4936121;29;20048;-62
2023/02/08 01:19:33;;;;;;;21.17;11.02;;;;;-1.10;100443.00;;;;4918950;29;20501;-62
2023/02/08 01:22:01;;;;;;;24.35;11.27;;;;;-1.10;100454.00;;;;4936061;29;20048;-63
2023/02/08 01:24:28;;;;;;;16.85;10.93;;;;;-1.10;100431.00;;;;4935607;29;20519;-62
2023/02/08 01:26:55;;;;;;;17.02;10.65;;;;;-1.00;100448.00;;;;4935775;29;20040;-62
2023/02/08 01:29:22;;;;;;;21.27;11.32;;;;;-1.00;100436.00;;;;4918493;29;20521;-62
2023/02/08 01:31:48;;;;;;;20.17;11.32;;;;;-0.90;100445.00;;;;4935209;29;20558;-62
2023/02/08 01:34:15;;;;;;;18.02;10.80;;;;;-0.90;100437.00;;;;4935093;29;20584;-62
2023/02/08 01:36:42;;;;;;;19.25;10.52;;;;;-0.90;100428.00;;;;4918619;29;20050;-62
2023/02/08 01:39:09;;;;;;;20.90;11.23;;;;;-0.90;100435.00;;;;4918644;29;20142;-62
2023/02/08 01:41:42;;;;;;;18.73;11.07;;;;;-0.90;100426.00;;;;4918486;29;20055;-62
2023/02/08 01:44:12;;;;;;;20.27;11.32;;;;;-0.90;100429.00;;;;4934887;29;20493;-62
2023/02/08 01:46:40;;;;;;;18.83;11.07;;;;;-0.80;100425.00;;;;4918421;29;20055;-62
2023/02/08 01:49:14;;;;;;;17.67;10.27;;;;;-0.80;100423.00;;;;4918150;29;20505;-62
2023/02/08 01:51:46;;;;;;;17.63;10.05;;;;;-0.80;100421.00;;;;4918294;29;20059;-62
2023/02/08 01:54:14;;;;;;;15.82;9.70;;;;;-0.80;100431.00;;;;4917481;29;20062;-62
2023/02/08 01:56:44;;;;;;;16.02;9.82;;;;;-0.80;100436.00;;;;4935242;29;20087;-62
2023/02/08 01:59:22;;;;;;;18.45;10.68;;;;;-0.80;100433.00;;;;4918307;29;20051;-62
2023/02/08 02:01:52;;;;;;;18.15;11.00;;;;;-0.70;100435.00;;;;4935056;29;20040;-62
2023/02/08 02:04:19;;;;;;;17.33;10.20;;;;;-0.80;100427.00;;;;4902091;29;20394;-63
2023/02/08 02:06:49;;;;;;;16.05;10.20;;;;;-0.80;100423.00;;;;4917817;29;20103;-63
2023/02/08 02:09:41;;;;;;;18.15;10.10;;;;;-0.80;100430.00;;;;4935307;29;20052;-63
2023/02/08 02:12:08;;;;;;;17.08;10.40;;;;;-0.70;100422.00;;;;4934986;29;20052;-63
2023/02/08 02:14:37;;;;;;;14.60;10.30;;;;;-0.70;100425.00;;;;4917581;29;20044;-63
2023/02/08 02:17:05;;;;;;;16.17;9.75;;;;;-0.80;100418.00;;;;4935378;29;20074;-62
2023/02/08 02:20:02;;;;;;;19.60;11.40;;;;;-0.80;100414.00;;;;4918189;29;20107;-62
2023/02/08 02:22:50;;;;;;;14.98;9.48;;;;;-0.80;100420.00;;;;4934911;29;20051;-62
2023/02/08 02:25:57;;;;;;;18.13;9.73;;;;;-0.90;100408.00;;;;4935273;29;20057;-62
2023/02/08 02:28:56;;;;;;;14.90;9.77;;;;;-1.00;100410.00;;;;4935402;29;20048;-62
2023/02/08 02:31:46;;;;;;;16.65;11.15;;;;;-1.10;100411.00;;;;4935451;29;20081;-62
2023/02/08 02:34:36;;;;;;;16.65;10.25;;;;;-1.10;100412.00;;;;4917547;29;20481;-62
2023/02/08 02:37:37;;;;;;;16.13;10.05;;;;;-1.10;100414.00;;;;4935586;29;20040;-62
2023/02/08 02:40:25;;;;;;;15.15;9.57;;;;;-1.10;100415.00;;;;4935463;29;20086;-62
2023/02/08 02:46:09;;;;;;;19.50;10.40;;;;;-1.20;100406.00;;;;4934910;29;20493;-61
2023/02/08 02:48:51;;;;;;;19.90;10.75;;;;;-1.20;100403.00;;;;4935562;29;20071;-62
2023/02/08 02:51:26;;;;;;;15.02;9.60;;;;;-1.20;100397.00;;;;4935360;29;20044;-62
2023/02/08 02:54:02;;;;;;;;;;;;;-1.10;100395.00;;;;4936360;29;20505;-62
2023/02/08 02:56:35;;;;;;;15.10;9.38;;;;;-1.20;100393.00;;;;4934948;29;19923;-62
2023/02/08 02:59:05;;;;;;;16.15;10.63;;;;;-1.30;100399.00;;;;4935648;29;20059;-62
2023/02/08 03:01:32;;;;;;;15.10;10.43;;;;;-1.30;100392.00;;;;4935232;29;20450;-62
2023/02/08 03:03:59;;;;;;;17.27;10.13;;;;;-1.20;100393.00;;;;4936198;29;20055;-61
2023/02/08 03:06:55;;;;;;;18.48;10.55;;;;;-1.30;100389.00;;;;4935434;29;20051;-61
2023/02/08 03:09:35;;;;;;;14.30;9.35;;;;;-1.40;100384.00;;;;4936427;29;20047;-61
2023/02/08 03:12:19;;;;;;;18.00;11.20;;;;;-1.50;100388.00;;;;4919370;29;20079;-61
2023/02/08 03:15:05;;;;;;;16.23;9.43;;;;;-1.40;100387.00;;;;4935586;29;20095;-61
2023/02/08 03:17:34;;;;;;;14.18;9.32;;;;;-1.40;100387.00;;;;4921102;29;20122;-61
2023/02/08 03:20:08;;;;;;;18.52;10.07;;;;;-1.50;100388.00;;;;4921148;29;20040;-61
2023/02/08 03:22:55;;;;;;;16.52;10.30;;;;;-1.50;100387.00;;;;4935884;29;20382;-62
2023/02/08 03:25:26;;;;;;;17.25;10.82;;;;;-1.50;100384.00;;;;4934952;29;20067;-62
2023/02/08 03:28:13;;;;;;;16.25;10.38;;;;;-1.50;100387.00;;;;4917623;29;20048;-62
2023/02/08 03:30:48;;;;;;;19.50;10.20;;;;;-1.40;100381.00;;;;4934379;29;20060;-62
2023/02/08 03:33:30;;;;;;;14.57;9.48;;;;;-1.40;100382.00;;;;4918030;29;20055;-62
2023/02/08 03:36:18;;;;;;;18.10;10.80;;;;;-1.50;100383.00;;;;4933546;29;20048;-62
2023/02/08 03:38:46;;;;;;;17.52;9.50;;;;;-1.70;100390.00;;;;4934734;29;20056;-62
2023/02/08 03:41:18;;;;;;;16.25;10.38;;;;;-1.80;100391.00;;;;4934673;29;20051;-62
2023/02/08 03:43:57;;;;;;;18.58;10.07;;;;;-1.70;100392.00;;;;4934735;29;20048;-62
2023/02/08 03:46:28;;;;;;;13.63;9.75;;;;;-1.70;100394.00;;;;4934912;29;20076;-62
2023/02/08 03:49:03;;;;;;;16.23;9.98;;;;;-1.70;100399.00;;;;4917779;29;20047;-63
2023/02/08 03:51:32;;;;;;;17.10;9.43;;;;;-1.70;100390.00;;;;4935035;29;20047;-63
2023/02/08 03:54:03;;;;;;;13.38;9.23;;;;;-1.70;100392.00;;;;4936489;29;20051;-62
2023/02/08 03:56:45;;;;;;;14.18;9.18;;;;;-1.70;100403.00;;;;4921259;29;20405;-63
2023/02/08 03:59:25;;;;;;;15.30;9.85;;;;;-1.70;100381.00;;;;4938899;29;20110;-63
2023/02/08 04:02:00;;;;;;;15.70;9.55;;;;;-1.70;100392.00;;;;4939503;29;20043;-63
2023/02/08 04:04:31;;;;;;;13.63;8.98;;;;;-1.70;100388.00;;;;4938431;29;20078;-62
2023/02/08 04:06:58;;;;;;;16.15;9.20;;;;;-1.70;100390.00;;;;4938292;29;20044;-63
2023/02/08 04:09:24;;;;;;;15.05;8.85;;;;;-1.70;100388.00;;;;4921098;29;20057;-62
2023/02/08 04:11:51;;;;;;;15.63;9.52;;;;;-1.80;100385.00;;;;4921220;29;20082;-62
2023/02/08 04:14:17;;;;;;;17.27;9.45;;;;;-1.90;100383.00;;;;4940920;29;20043;-63
2023/02/08 04:16:44;;;;;;;16.10;9.68;;;;;-2.00;100386.00;;;;4943500;29;20071;-63
2023/02/08 04:19:10;;;;;;;14.73;9.45;;;;;-2.10;100384.00;;;;4944152;29;20047;-63
2023/02/08 04:21:37;;;;;;;16.63;9.35;;;;;-2.10;100387.00;;;;4926174;29;20048;-63
2023/02/08 04:24:04;;;;;;;17.27;9.85;;;;;-2.10;100381.00;;;;4941898;29;20051;-64
2023/02/08 04:26:31;;;;;;;17.52;9.63;;;;;-2.20;100375.00;;;;4942375;29;20052;-62
2023/02/08 04:28:57;;;;;;;18.40;10.63;;;;;-2.20;100379.00;;;;4945197;29;20071;-62
2023/02/08 04:31:24;;;;;;;17.77;10.15;;;;;-2.20;100372.00;;;;4948084;29;20107;-62
2023/02/08 04:33:50;;;;;;;16.92;9.63;;;;;-2.20;100371.00;;;;4947128;29;20078;-62
2023/02/08 04:36:17;;;;;;;16.95;10.25;;;;;-2.10;100373.00;;;;4945845;29;20050;-61
2023/02/08 04:38:44;;;;;;;17.00;9.45;;;;;-2.10;100367.00;;;;4947760;29;20051;-62
2023/02/08 04:41:10;;;;;;;19.38;10.27;;;;;-2.10;100362.00;;;;4926876;29;20043;-62
2023/02/08 04:43:37;;;;;;;13.00;9.38;;;;;-2.00;100372.00;;;;4921198;29;20055;-62
2023/02/08 04:46:03;;;;;;;14.70;8.45;;;;;-2.00;100364.00;;;;4920533;29;20461;-62
2023/02/08 04:48:30;;;;;;;17.10;9.65;;;;;-2.00;100372.00;;;;4937892;29;20044;-61
2023/02/08 04:50:57;;;;;;;14.00;9.15;;;;;-2.00;100367.00;;;;4937273;29;20044;-62
2023/02/08 04:53:24;;;;;;;18.42;10.15;;;;;-2.00;100374.00;;;;4937311;29;20052;-62
2023/02/08 04:55:51;;;;;;;13.95;9.73;;;;;-2.00;100367.00;;;;4938174;29;20062;-62
2023/02/08 04:58:18;;;;;;;14.73;9.40;;;;;-2.00;100358.00;;;;4946242;29;20489;-62
2023/02/08 05:00:45;;;;;;;15.60;8.98;;;;;-2.00;100368.00;;;;4941745;29;20098;-61
2023/02/08 05:03:12;;;;;;;19.08;9.23;;;;;-1.90;100369.00;;;;4937782;29;20103;-63
2023/02/08 05:05:38;;;;;;;17.08;9.80;;;;;-2.00;100365.00;;;;4935121;29;20186;-62
2023/02/08 05:08:06;;;;;;;14.90;8.50;;;;;-2.00;100359.00;;;;4936691;29;20560;-62
2023/02/08 05:10:32;;;;;;;14.35;9.25;;;;;-2.10;100366.00;;;;4936935;29;20052;-61
2023/02/08 05:12:59;;;;;;;15.13;8.57;;;;;-2.20;100354.00;;;;4936852;29;20095;-62
2023/02/08 05:15:25;;;;;;;15.98;9.68;;;;;-2.20;100347.00;;;;4936043;29;20078;-62
2023/02/08 05:17:52;;;;;;;14.55;9.13;;;;;-2.30;100352.00;;;;4936525;29;20040;-62
2023/02/08 05:20:18;;;;;;;18.23;9.18;;;;;-2.30;100353.00;;;;4936387;29;20039;-61
2023/02/08 05:22:45;;;;;;;32.08;17.30;;;;;-2.20;100359.00;;;;4936365;29;20050;-62
2023/02/08 05:25:12;;;;;;;14.07;8.73;;;;;-2.20;100352.00;;;;4935899;29;20054;-62
2023/02/08 05:27:38;;;;;;;16.23;9.77;;;;;-2.30;100340.00;;;;4936242;29;20437;-61
2023/02/08 05:30:05;;;;;;;15.63;9.90;;;;;-2.40;100346.00;;;;4936321;29;20044;-62
2023/02/08 05:32:32;;;;;;;15.75;9.38;;;;;-2.40;100338.00;;;;4919383;29;20047;-62
2023/02/08 05:34:58;;;;;;;14.55;8.73;;;;;-2.40;100344.00;;;;4918866;29;20055;-62
2023/02/08 05:37:25;;;;;;;16.27;9.45;;;;;-2.40;100343.00;;;;4937078;29;20047;-63
2023/02/08 05:39:52;;;;;;;14.93;8.80;;;;;-2.40;100356.00;;;;4923068;29;20482;-62
2023/02/08 05:42:18;;;;;;;17.08;9.35;;;;;-2.40;100348.00;;;;4936296;29;20501;-62
2023/02/08 05:44:45;;;;;;;17.08;9.55;;;;;-2.50;100346.00;;;;4935695;29;20114;-63
2023/02/08 05:47:12;;;;;;;16.70;9.55;;;;;-2.40;100358.00;;;;4936167;29;20497;-62
2023/02/08 05:49:38;;;;;;;15.57;9.68;;;;;-2.50;100353.00;;;;4936510;29;20051;-63
2023/02/08 05:52:05;;;;;;;18.42;8.90;;;;;-2.40;100353.00;;;;4936073;29;20054;-62
2023/02/08 05:54:31;;;;;;;17.10;10.20;;;;;-2.40;100357.00;;;;4918699;29;20043;-62
2023/02/08 05:56:58;;;;;;;16.58;9.98;;;;;-2.40;100349.00;;;;4936241;29;20039;-62
2023/02/08 05:59:24;;;;;;;16.65;9.45;;;;;-2.40;100360.00;;;;4936219;29;20449;-62
2023/02/08 06:01:51;;;;;;;15.35;9.77;;;;;-2.50;100355.00;;;;4935948;29;20107;-62
2023/02/08 06:04:17;;;;;;;23.38;11.77;;;;;-2.40;100362.00;;;;4919285;29;20090;-62
2023/02/08 06:06:44;;;;;;;18.48;9.65;;;;;-2.40;100353.00;;;;4936878;29;20043;-63
2023/02/08 06:09:10;;;;;;;16.52;9.57;;;;;-2.40;100369.00;;;;4936596;29;20493;-64
2023/02/08 06:11:37;;;;;;;13.60;9.13;;;;;-2.30;100367.00;;;;4935764;29;20130;-62
2023/02/08 06:14:03;;;;;;;15.63;9.13;;;;;-2.30;100359.00;;;;4919178;29;20050;-62
2023/02/08 06:16:30;;;;;;;14.73;9.52;;;;;-2.30;100360.00;;;;4919453;29;20051;-62
2023/02/08 06:18:57;;;;;;;17.13;9.45;;;;;-2.40;100367.00;;;;4936465;29;20039;-63
2023/02/08 06:21:23;;;;;;;19.98;10.48;;;;;-2.50;100359.00;;;;4937011;29;20047;-62
2023/02/08 06:23:50;;;;;;;15.55;9.48;;;;;-2.50;100376.00;;;;4938450;29;20058;-62
2023/02/08 06:26:16;;;;;;;17.58;10.48;;;;;-2.50;100365.00;;;;4939156;29;20044;-61
2023/02/08 06:28:43;;;;;;;20.50;9.73;;;;;-2.50;100374.00;;;;4941397;29;20070;-61
2023/02/08 06:31:09;;;;;;;21.65;9.90;;;;;-2.50;100385.00;;;;4942745;29;20052;-62
2023/02/08 06:33:36;;;;;;;19.25;10.55;;;;;-2.40;100386.00;;;;4938982;29;20051;-63
2023/02/08 06:36:02;;;;;;;15.65;8.95;;;;;-2.40;100377.00;;;;4934920;29;20043;-61
2023/02/08 06:38:29;;;;;;;18.45;9.95;;;;;-2.40;100383.00;;;;4918466;29;20047;-61
2023/02/08 06:41:07;;;;;;;13.73;9.32;;;;;-2.40;100385.00;;;;4937970;29;20473;-63
2023/02/08 06:43:39;;;;;;;13.98;8.63;;;;;-2.40;100386.00;;;;4905858;29;20079;-62
2023/02/08 06:46:07;;;;;;;14.40;9.00;;;;;-2.40;100382.00;;;;4934763;29;20059;-62
2023/02/08 06:48:34;;;;;;;17.88;9.23;;;;;-2.30;100375.00;;;;4935070;29;20048;-63
2023/02/08 06:51:01;;;;;;;16.05;9.27;;;;;-2.30;100376.00;;;;4934876;29;20056;-66
2023/02/08 06:53:28;;;;;;;15.57;8.93;;;;;-2.30;100372.00;;;;4934909;29;20044;-63
2023/02/08 06:55:54;;;;;;;15.52;9.43;;;;;-2.30;100371.00;;;;4934442;29;20048;-63
2023/02/08 06:58:21;;;;;;;18.55;10.40;;;;;-2.20;100379.00;;;;4934886;29;20048;-63
2023/02/08 07:00:47;;;;;;;19.73;9.75;;;;;-2.20;100366.00;;;;4934893;29;20048;-63
2023/02/08 07:03:16;;;;;;;18.85;8.27;;;;;-2.20;100372.00;;;;4934882;29;20104;-60
2023/02/08 07:05:42;;;;;;;18.63;9.95;;;;;-2.20;100377.00;;;;4934336;29;20134;-62
2023/02/08 07:08:32;;;;;;;25.27;10.40;;;;;-2.30;100371.00;;;;4934674;29;20115;-62
2023/02/08 07:10:59;;;;;;;16.92;9.57;;;;;-2.20;100381.00;;;;4934821;29;20075;-62
2023/02/08 07:13:25;;;;;;;17.90;9.77;;;;;-2.20;100376.00;;;;4934890;29;20054;-62
2023/02/08 07:15:52;;;;;;;15.75;9.88;;;;;-2.20;100370.00;;;;4934292;29;20047;-62
2023/02/08 07:18:19;;;;;;;19.83;10.18;;;;;-2.10;100378.00;;;;4934786;29;20051;-61
2023/02/08 07:20:47;;;;;;;15.68;9.60;;;;;-2.10;100378.00;;;;4917657;29;20536;-62
2023/02/08 07:23:14;;;;;;;15.70;9.18;;;;;-2.10;100375.00;;;;4934650;29;20052;-63
2023/02/08 07:25:40;;;;;;;20.13;10.75;;;;;-2.10;100364.00;;;;4934013;29;20048;-63
2023/02/08 07:28:07;;;;;;;21.30;11.25;;;;;-2.00;100377.00;;;;4934977;29;20106;-62
2023/02/08 07:30:34;;;;;;;19.50;10.73;;;;;-2.00;100373.00;;;;4921640;29;20090;-63
2023/02/08 07:33:00;;;;;;;16.80;9.73;;;;;-2.00;100378.00;;;;4921500;29;20078;-63
2023/02/08 07:35:27;;;;;;;18.38;9.45;;;;;-1.90;100378.00;;;;4937869;29;20044;-61
2023/02/08 07:37:53;;;;;;;15.73;9.50;;;;;-1.90;100376.00;;;;4938492;29;20047;-62
2023/02/08 07:40:20;;;;;;;16.77;9.82;;;;;-1.80;100375.00;;;;4938455;29;20091;-62
2023/02/08 07:42:48;;;;;;;18.95;10.43;;;;;-1.80;100380.00;;;;4938296;29;20063;-62
2023/02/08 07:45:26;;;;;;;17.92;9.70;;;;;-1.70;100370.00;;;;4920691;29;20052;-62
2023/02/08 07:47:53;;;;;;;17.58;9.80;;;;;-1.70;100381.00;;;;4921407;29;20103;-62
2023/02/08 07:50:19;;;;;;;16.98;10.70;;;;;-1.60;100382.00;;;;4938179;29;20055;-63
2023/02/08 07:52:46;;;;;;;17.52;9.43;;;;;-1.60;100374.00;;;;4921280;29;20048;-62
2023/02/08 07:55:17;;;;;;;17.10;9.95;;;;;-1.60;100381.00;;;;4937616;29;20054;-62
2023/02/08 07:57:45;;;;;;;20.25;9.98;;;;;-1.50;100381.00;;;;4938111;29;20111;-62
2023/02/08 08:00:13;;;;;;;19.77;9.77;;;;;-1.40;100374.00;;;;4938169;29;20099;-62
2023/02/08 08:02:39;;;;;;;20.08;9.77;;;;;-1.40;100375.00;;;;4921205;29;20060;-63
2023/02/08 08:05:07;;;;;;;20.48;9.23;;;;;-1.30;100376.00;;;;4938288;29;20119;-62
2023/02/08 08:07:34;;;;;;;13.77;9.43;;;;;-1.20;100372.00;;;;4939128;29;20075;-62
2023/02/08 08:10:14;;;;;;;19.58;10.57;;;;;-1.20;100368.00;;;;4938938;29;20084;-63
2023/02/08 08:12:41;;;;;;;18.92;9.70;;;;;-1.10;100377.00;;;;4939137;29;20044;-62
2023/02/08 08:15:08;;;;;;;14.98;9.10;;;;;-1.00;100380.00;;;;4938160;29;20103;-62
2023/02/08 08:17:34;;;;;;;15.60;9.73;;;;;-1.00;100378.00;;;;4938507;29;20397;-62
2023/02/08 08:20:01;;;;;;;22.23;9.93;;;;;-0.90;100379.00;;;;4938381;29;20043;-62
2023/02/08 08:22:28;;;;;;;16.25;9.85;;;;;-0.80;100376.00;;;;4938509;29;20095;-62
2023/02/08 08:24:58;;;;;;;20.88;10.57;;;;;-0.70;100374.00;;;;4920415;29;20142;-62
2023/02/08 08:27:28;;;;;;;20.75;10.32;;;;;-0.60;100377.00;;;;4937778;29;20048;-63
2023/02/08 08:29:58;;;;;;;18.15;9.52;;;;;-0.60;100378.00;;;;4905522;29;20043;-62
2023/02/08 08:32:25;;;;;;;17.75;10.18;;;;;-0.50;100374.00;;;;4937636;29;20127;-62
2023/02/08 08:34:51;;;;;;;21.17;12.65;;;;;-0.40;100378.00;;;;4919750;29;20098;-62
2023/02/08 08:37:21;;;;;;;17.75;9.98;;;;;-0.30;100369.00;;;;4937096;29;20055;-63
2023/02/08 08:39:47;;;;;;;17.00;9.60;;;;;-0.20;100369.00;;;;4936989;29;20107;-63
2023/02/08 08:42:14;;;;;;;16.88;10.10;;;;;-0.10;100376.00;;;;4937235;29;20057;-63
2023/02/08 08:44:41;;;;;;;14.95;9.13;;;;;0.00;100378.00;;;;4919841;29;20051;-63
2023/02/08 08:47:07;;;;;;;15.95;9.85;;;;;0.10;100372.00;;;;4937483;29;20054;-64
2023/02/08 08:49:34;;;;;;;20.67;9.75;;;;;0.20;100369.00;;;;4920452;29;20047;-62
2023/02/08 08:52:06;;;;;;;17.02;9.90;;;;;0.30;100370.00;;;;4939862;29;20048;-61
2023/02/08 08:54:33;;;;;;;15.32;9.77;;;;;0.40;100367.00;;;;4938251;29;20044;-63
2023/02/08 08:57:00;;;;;;;18.13;10.45;;;;;0.50;100372.00;;;;4937673;29;20058;-63
2023/02/08 08:59:27;;;;;;;13.73;9.07;;;;;0.60;100374.00;;;;4937035;29;20054;-63
2023/02/08 09:01:53;;;;;;;18.65;9.50;;;;;0.70;100380.00;;;;4936880;29;20526;-63
2023/02/08 09:04:23;;;;;;;16.10;10.38;;;;;0.80;100384.00;;;;4919087;29;20052;-61
2023/02/08 09:06:51;;;;;;;15.15;9.32;;;;;0.90;100372.00;;;;4937111;29;20048;-62
2023/02/08 09:09:19;;;;;;;15.95;8.93;;;;;1.00;100368.00;;;;4936654;29;20507;-61
2023/02/08 09:11:46;;;;;;;14.10;9.13;;;;;1.10;100370.00;;;;4936664;29;20051;-61
2023/02/08 09:14:13;;;;;;;15.55;9.45;;;;;1.20;100365.00;;;;4918886;29;20055;-61
2023/02/08 09:16:41;;;;;;;16.88;9.20;;;;;1.30;100367.00;;;;4936650;29;20128;-61
2023/02/08 09:19:09;;;;;;;14.52;9.02;;;;;1.30;100360.00;;;;4936581;29;20385;-61
2023/02/08 09:21:36;;;;;;;16.90;9.77;;;;;1.50;100364.00;;;;4936570;29;20091;-62
2023/02/08 09:24:03;;;;;;;12.57;8.85;;;;;1.60;100363.00;;;;4936318;29;20043;-62
2023/02/08 09:26:29;;;;;;;16.02;9.05;;;;;1.70;100363.00;;;;4936259;29;20520;-62
2023/02/08 09:28:56;;;;;;;12.73;8.05;;;;;1.70;100363.00;;;;4936554;29;20095;-62
2023/02/08 09:31:26;;;;;;;10.93;7.32;;;;;1.90;100369.00;;;;4936472;29;20039;-62
2023/02/08 09:33:56;;;;;;;15.80;8.20;;;;;1.90;100376.00;;;;4936370;29;20056;-62
2023/02/08 09:36:26;;;;;;;13.25;8.18;;;;;2.00;100374.00;;;;4935833;29;20048;-62
2023/02/08 09:38:59;;;;;;;13.25;7.80;;;;;2.10;100370.00;;;;4919295;29;20048;-62
2023/02/08 09:42:04;;;;;;;11.60;7.63;;;;;2.20;100369.00;;;;4919491;29;20396;-63
2023/02/08 09:44:39;;;;;;;15.80;8.30;;;;;2.30;100373.00;;;;4920448;29;20122;-62
2023/02/08 09:47:23;;;;;;;12.88;8.00;;;;;2.40;100371.00;;;;4936072;29;20074;-62
2023/02/08 09:50:01;;;;;;;16.25;9.88;;;;;2.40;100369.00;;;;4935995;29;20039;-62
2023/02/08 09:52:39;;;;;;;14.95;7.82;;;;;2.50;100362.00;;;;4935152;29;20568;-62
2023/02/08 09:55:33;;;;;;;13.60;8.73;;;;;2.60;100361.00;;;;4918542;29;20086;-62
2023/02/08 09:58:03;;;;;;;12.45;8.65;;;;;2.70;100368.00;;;;4936018;29;20477;-62
2023/02/08 10:00:34;;;;;;;13.63;8.60;;;;;2.80;100365.00;;;;4935812;29;20048;-62
2023/02/08 10:03:01;;;;;;;15.75;8.18;;;;;2.90;100362.00;;;;4935598;29;20048;-62
2023/02/08 10:05:30;;;;;;;15.77;8.95;;;;;2.90;100356.00;;;;4934950;29;20090;-62
2023/02/08 10:07:59;;;;;;;16.67;8.68;;;;;3.00;100362.00;;;;4935657;29;20044;-62
2023/02/08 10:10:44;;;;;;;15.43;9.93;;;;;3.00;100364.00;;;;4935673;29;20048;-63
2023/02/08 10:13:41;;;;;;;13.13;8.43;;;;;3.20;100365.00;;;;4935478;29;20067;-63
2023/02/08 10:16:45;;;;;;;15.63;9.38;;;;;3.20;100362.00;;;;4934967;29;20043;-61
2023/02/08 10:19:27;;;;;;;25.70;14.40;;;;;3.30;100357.00;;;;4935509;29;20489;-61
2023/02/08 10:22:11;;;;;;;12.90;8.32;;;;;3.40;100354.00;;;;4935579;29;20055;-61
2023/02/08 10:24:44;;;;;;;14.07;8.60;;;;;3.40;100360.00;;;;4917725;29;20536;-62
2023/02/08 10:27:33;;;;;;;12.52;7.53;;;;;3.50;100350.00;;;;4935463;29;20044;-62
2023/02/08 10:30:19;;;;;;;12.00;8.23;;;;;3.60;100356.00;;;;4935312;29;20054;-62
2023/02/08 10:33:01;;;;;;;12.73;7.95;;;;;3.70;100360.00;;;;4935448;29;20053;-62
2023/02/08 10:35:35;;;;;;;11.63;7.45;;;;;3.70;100352.00;;;;4934822;29;20054;-62
2023/02/08 10:38:30;;;;;;;16.77;9.02;;;;;3.80;100344.00;;;;4935416;29;20067;-62
2023/02/08 10:41:19;;;;;;;11.82;8.60;;;;;3.80;100336.00;;;;4935011;29;20047;-61
2023/02/08 10:44:21;;;;;;;12.27;7.93;;;;;3.90;100341.00;;;;4935007;29;20493;-61
2023/02/08 10:47:13;;;;;;;9.00;5.75;;;;;4.10;100335.00;;;;4935009;29;20417;-61
2023/02/08 10:49:46;;;;;;;8.90;5.55;;;;;4.20;100337.00;;;;4934887;29;20051;-61
2023/02/08 10:52:12;;;;;;;8.68;5.75;;;;;4.20;100326.00;;;;4935054;29;20043;-61
2023/02/08 10:54:39;;;;;;;8.30;5.20;;;;;4.30;100342.00;;;;4917271;29;20047;-62
2023/02/08 10:57:13;;;;;;;7.10;4.22;;;;;4.40;100333.00;;;;4935006;29;20056;-61
2023/02/08 10:59:56;;;;;;;7.03;4.38;;;;;4.40;100323.00;;;;4934949;29;20040;-62
2023/02/08 11:02:26;;;;;;;6.15;4.50;;;;;4.40;100317.00;;;;4934766;29;20516;-61
2023/02/08 11:05:17;;;;;;;6.80;4.60;;;;;4.50;100313.00;;;;4934268;29;20137;-62
2023/02/08 11:07:44;;;;;;;6.57;4.47;;;;;4.50;100322.00;;;;4934893;29;20517;-60
2023/02/08 11:10:17;;;;;;;9.23;5.15;;;;;4.70;100312.00;;;;4934628;29;20508;-60
2023/02/08 11:13:24;;;;;;;6.18;4.35;;;;;4.80;100314.00;;;;4934620;29;20044;-63
2023/02/08 11:15:54;;;;;;;7.60;4.50;;;;;4.90;100309.00;;;;4934075;29;20513;-61
2023/02/08 11:18:37;;;;;;;6.43;4.43;;;;;5.00;100309.00;;;;4934687;29;20047;-62
2023/02/08 11:21:33;;;;;;;9.65;5.10;;;;;5.10;100300.00;;;;4934846;29;20107;-61
2023/02/08 11:24:13;;;;;;;9.38;5.95;;;;;5.20;100311.00;;;;4934710;29;20489;-63
2023/02/08 11:26:41;;;;;;;10.82;6.57;;;;;5.20;100324.00;;;;4934635;29;20527;-62
2023/02/08 11:29:16;;;;;;;10.05;6.20;;;;;5.20;100313.00;;;;4934550;29;20382;-63
2023/02/08 11:31:58;;;;;;;11.05;6.72;;;;;5.10;100306.00;;;;4917715;29;20418;-61
2023/02/08 11:34:37;;;;;;;8.88;5.90;;;;;5.20;100300.00;;;;4917405;29;20667;-61
2023/02/08 11:37:27;;;;;;;9.80;6.20;;;;;5.20;100292.00;;;;4934874;29;20103;-62
2023/02/08 11:39:56;;;;;;;10.85;6.72;;;;;5.20;100296.00;;;;4934762;29;20039;-62
2023/02/08 11:42:27;;;;;;;10.18;6.20;;;;;5.20;100296.00;;;;4917502;29;20417;-61
2023/02/08 11:44:56;;;;;;;13.82;8.35;;;;;5.30;100290.00;;;;4934135;29;20051;-61
2023/02/08 11:47:29;;;;;;;12.73;6.70;;;;;5.40;100284.00;;;;4934860;29;20052;-61
2023/02/08 11:49:59;;;;;;;12.60;5.72;;;;;5.30;100284.00;;;;4934630;29;20044;-61
2023/02/08 11:52:41;;;;;;;10.20;5.65;;;;;5.50;100285.00;;;;4917705;29;20135;-62
2023/02/08 11:55:23;;;;;;;13.68;7.70;;;;;5.50;100282.00;;;;4934595;29;20052;-62
2023/02/08 11:58:08;;;;;;;10.98;6.82;;;;;5.50;100281.00;;;;4934590;29;20094;-61
2023/02/08 12:00:37;;;;;;;18.95;7.88;;;;;5.50;100275.00;;;;4934972;29;20055;-62
2023/02/08 12:03:12;;;;;;;8.68;5.45;;;;;5.60;100281.00;;;;4917494;29;20069;-62
2023/02/08 12:05:55;;;;;;;9.52;5.47;;;;;5.60;100274.00;;;;4934508;29;20044;-62
2023/02/08 12:08:45;;;;;;;9.88;6.13;;;;;5.70;100274.00;;;;4917792;29;20051;-61
2023/02/08 12:11:26;;;;;;;9.30;6.22;;;;;5.70;100277.00;;;;4934620;29;20115;-61
2023/02/08 12:14:21;;;;;;;8.88;5.70;;;;;5.60;100277.00;;;;4934735;29;20048;-62
2023/02/08 12:17:00;;;;;;;9.75;5.85;;;;;5.60;100275.00;;;;4937509;29;20044;-62
2023/02/08 12:20:11;;;;;;;9.25;5.20;;;;;5.70;100273.00;;;;4937716;29;20055;-62
2023/02/08 12:22:42;;;;;;;6.25;5.05;;;;;5.70;100273.00;;;;4897422;29;20077;-62
2023/02/08 12:25:28;;;;;;;7.25;4.65;;;;;5.80;100274.00;;;;4930175;29;20074;-63
2023/02/08 12:28:32;;;;;;;9.70;5.28;;;;;5.70;100272.00;;;;4937630;29;20083;-63